Time;durP1;ratioP1;P1;durP2;ratioP2;P2;SDS_P1;SDS_P2;PMS_P1;PMS_P2;Temp;Humidity;BMP_temperature;BMP_pressure;BME280_temperature;BME280_humidity;BME280_pressure;Samples;Min_cycle;Max_cycle;Signal;HPM_P1;HPM_P2
2024/01/10 00:01:20;;;;;;;20.48;10.15;;;;;;;-4.73;57.18;99456.31;4955711;28;104086;-66
2024/01/10 00:03:50;;;;;;;17.15;9.15;;;;;;;-4.79;57.64;99462.53;4933693;28;104156;-66
2024/01/10 00:06:18;;;;;;;24.55;9.73;;;;;;;-4.76;58.01;99459.00;4935942;28;103937;-66
2024/01/10 00:08:47;;;;;;;19.40;8.93;;;;;;;-4.75;57.94;99458.13;4936063;28;102719;-66
2024/01/10 00:11:15;;;;;;;17.33;8.57;;;;;;;-4.73;57.91;99461.47;4937971;28;103953;-69
2024/01/10 00:13:43;;;;;;;20.00;10.30;;;;;;;-4.75;57.55;99453.78;4929301;28;104389;-66
2024/01/10 00:16:13;;;;;;;24.90;9.85;;;;;;;-4.77;57.66;99455.56;4936787;28;103258;-66
2024/01/10 00:18:41;;;;;;;18.60;9.50;;;;;;;-4.64;58.28;99450.81;4936351;28;102611;-66
2024/01/10 00:21:11;;;;;;;17.10;9.57;;;;;;;-4.52;59.12;99449.53;4935243;28;102620;-74
2024/01/10 00:23:38;;;;;;;16.20;7.57;;;;;;;-4.53;58.98;99446.13;4936812;28;102926;-74
2024/01/10 00:26:06;;;;;;;15.98;8.57;;;;;;;-4.51;58.34;99446.06;4936153;28;103179;-74
2024/01/10 00:28:34;;;;;;;15.50;9.05;;;;;;;-4.51;58.41;99446.06;4935456;28;102595;-74
2024/01/10 00:31:02;;;;;;;18.38;9.32;;;;;;;-4.51;58.41;99444.34;4940795;28;103919;-74
2024/01/10 00:33:31;;;;;;;13.60;7.78;;;;;;;-4.43;58.46;99445.78;4947262;28;103304;-65
2024/01/10 00:36:00;;;;;;;16.30;9.27;;;;;;;-4.42;57.83;99434.56;4936695;28;102994;-66
2024/01/10 00:38:29;;;;;;;14.30;6.70;;;;;;;-4.33;58.79;99439.38;4941455;28;102586;-66
2024/01/10 00:40:57;;;;;;;17.40;8.38;;;;;;;-4.27;59.12;99439.16;4953754;28;103735;-66
2024/01/10 00:43:25;;;;;;;13.90;8.65;;;;;;;-4.48;58.78;99439.94;4935429;28;103884;-66
2024/01/10 00:45:53;;;;;;;17.40;9.10;;;;;;;-4.36;59.45;99440.34;4936745;28;104322;-66
2024/01/10 00:48:21;;;;;;;19.17;9.98;;;;;;;-4.42;59.22;99439.72;4937616;28;103057;-67
2024/01/10 00:50:49;;;;;;;18.35;8.30;;;;;;;-4.50;59.29;99438.25;4951345;28;103837;-66
2024/01/10 00:53:17;;;;;;;14.63;8.30;;;;;;;-4.47;58.71;99441.63;4939171;28;104166;-66
2024/01/10 00:55:46;;;;;;;15.38;8.32;;;;;;;-4.43;58.47;99438.03;4933997;28;103256;-66
2024/01/10 00:58:16;;;;;;;17.27;9.70;;;;;;;-4.51;58.16;99439.16;4936232;28;102613;-66
2024/01/10 01:00:44;;;;;;;14.70;7.80;;;;;;;-4.61;57.49;99440.38;4937508;28;102672;-67
2024/01/10 01:03:12;;;;;;;16.52;9.73;;;;;;;-4.71;57.85;99441.59;4933983;27;104101;-66
2024/01/10 01:05:41;;;;;;;18.20;8.35;;;;;;;-4.75;58.46;99442.59;4935079;28;103200;-67
2024/01/10 01:08:09;;;;;;;20.60;9.18;;;;;;;-4.84;58.72;99434.25;4953877;28;102965;-66
2024/01/10 01:10:37;;;;;;;20.00;10.00;;;;;;;-4.79;59.02;99444.44;4936575;28;104279;-66
2024/01/10 01:13:07;;;;;;;21.00;10.15;;;;;;;-4.75;58.97;99445.19;4935207;28;103218;-67
2024/01/10 01:15:35;;;;;;;17.75;8.75;;;;;;;-4.85;58.36;99447.22;4934993;27;104362;-66
2024/01/10 01:18:05;;;;;;;19.90;9.80;;;;;;;-4.86;58.33;99451.56;4936355;28;102638;-67
2024/01/10 01:20:33;;;;;;;19.25;8.90;;;;;;;-4.88;58.71;99450.75;4933527;28;102813;-67
2024/01/10 01:23:01;;;;;;;16.15;8.82;;;;;;;-5.01;58.77;99457.25;4931261;28;104355;-67
2024/01/10 01:25:30;;;;;;;16.73;9.52;;;;;;;-5.03;58.72;99453.84;4932228;28;103657;-67
2024/01/10 01:27:57;;;;;;;20.15;10.35;;;;;;;-5.09;60.03;99456.66;4935596;28;103216;-67
2024/01/10 01:30:27;;;;;;;15.55;8.68;;;;;;;-5.19;60.32;99459.56;4936713;28;102714;-67
2024/01/10 01:32:55;;;;;;;19.60;10.55;;;;;;;-5.20;60.16;99457.84;4932547;28;104233;-66
2024/01/10 01:35:23;;;;;;;17.13;8.98;;;;;;;-5.16;59.96;99459.44;4936513;28;103220;-66
2024/01/10 01:37:51;;;;;;;17.73;9.80;;;;;;;-5.15;59.96;99449.94;4932977;28;103553;-66
2024/01/10 01:40:20;;;;;;;20.00;8.63;;;;;;;-5.14;60.07;99454.22;4934232;28;102784;-67
2024/01/10 01:42:47;;;;;;;17.05;9.82;;;;;;;-5.15;60.23;99452.53;4952588;28;104082;-66
2024/01/10 01:45:16;;;;;;;20.52;9.55;;;;;;;-5.13;60.19;99452.50;4936217;28;103243;-67
2024/01/10 01:47:46;;;;;;;16.88;8.43;;;;;;;-5.09;60.18;99449.75;4930533;28;102632;-67
2024/01/10 01:50:14;;;;;;;16.05;9.05;;;;;;;-5.06;60.27;99446.22;4936614;28;104264;-67
2024/01/10 01:52:42;;;;;;;17.75;9.27;;;;;;;-5.12;60.19;99444.69;4934388;28;103284;-66
2024/01/10 01:55:11;;;;;;;16.60;7.38;;;;;;;-5.09;60.26;99438.59;4933618;27;103260;-67
2024/01/10 01:57:39;;;;;;;20.05;9.02;;;;;;;-5.12;60.60;99443.84;4965565;27;102674;-67
2024/01/10 02:00:09;;;;;;;19.00;9.07;;;;;;;-4.97;59.75;99432.16;4933840;28;104507;-67
2024/01/10 02:02:38;;;;;;;16.95;8.18;;;;;;;-4.86;59.38;99438.66;4935417;28;105074;-66
2024/01/10 02:05:07;;;;;;;16.23;9.15;;;;;;;-4.91;59.70;99443.13;4938257;28;103506;-67
2024/01/10 02:07:36;;;;;;;16.83;9.93;;;;;;;-4.83;59.80;99435.94;4956677;28;102776;-67
2024/01/10 02:10:04;;;;;;;19.23;9.35;;;;;;;-4.86;59.57;99441.22;4950660;28;104443;-66
2024/01/10 02:12:32;;;;;;;20.80;9.05;;;;;;;-4.77;59.77;99437.47;4934691;28;104245;-66
2024/01/10 02:15:00;;;;;;;19.30;9.85;;;;;;;-4.76;59.89;99446.09;4936444;28;104264;-66
2024/01/10 02:17:31;;;;;;;18.00;8.48;;;;;;;-4.80;59.86;99440.16;4938055;28;102597;-67
2024/01/10 02:20:10;;;;;;;19.55;9.60;;;;;;;-4.75;60.19;99438.28;4931286;28;104303;-66
2024/01/10 02:22:38;;;;;;;17.55;9.00;;;;;;;-4.70;59.75;99441.53;4936273;28;103475;-67
2024/01/10 02:25:09;;;;;;;18.20;9.48;;;;;;;-4.75;59.71;99437.44;4933897;28;103203;-68
2024/01/10 02:27:38;;;;;;;19.42;9.25;;;;;;;-4.79;59.83;99439.28;4939498;28;102709;-66
2024/01/10 02:30:08;;;;;;;17.27;9.00;;;;;;;-4.85;60.39;99422.25;4933387;28;104024;-67
2024/01/10 02:32:36;;;;;;;18.55;9.70;;;;;;;-4.80;60.83;99423.81;4940352;28;103738;-66
2024/01/10 02:35:05;;;;;;;20.33;9.15;;;;;;;-4.81;60.10;99422.13;4938968;28;103294;-66
2024/01/10 02:37:33;;;;;;;14.57;8.23;;;;;;;-4.74;59.73;99431.34;4938556;28;102906;-66
2024/01/10 02:40:01;;;;;;;16.83;9.23;;;;;;;-4.62;59.86;99420.59;4934913;28;103796;-66
2024/01/10 02:42:31;;;;;;;19.17;9.57;;;;;;;-4.74;60.48;99418.41;4937915;28;103340;-66
2024/01/10 02:44:59;;;;;;;18.52;9.88;;;;;;;-4.76;60.19;99415.91;4939596;28;103249;-66
2024/01/10 02:47:29;;;;;;;17.75;9.45;;;;;;;-4.79;59.71;99416.00;4934683;28;102727;-67
2024/01/10 02:49:58;;;;;;;15.32;9.23;;;;;;;-4.65;60.38;99418.13;4936870;28;103879;-67
2024/01/10 02:52:28;;;;;;;17.65;9.50;;;;;;;-4.65;59.94;99418.13;4934620;28;105340;-74
2024/01/10 02:54:56;;;;;;;17.83;9.70;;;;;;;-4.64;59.52;99414.63;4953242;27;104199;-74
2024/01/10 02:57:24;;;;;;;19.88;10.38;;;;;;;-4.63;60.12;99413.72;4939481;28;104226;-74
2024/01/10 02:59:53;;;;;;;18.08;8.38;;;;;;;-4.60;60.36;99413.59;4936528;28;103200;-73
2024/01/10 03:02:23;;;;;;;20.63;10.40;;;;;;;-4.72;60.03;99422.66;4936982;27;103860;-74
2024/01/10 03:04:54;;;;;;;21.03;10.17;;;;;;;-4.66;60.35;99416.44;4934031;28;103386;-75
2024/01/10 03:07:24;;;;;;;16.50;9.27;;;;;;;-4.68;60.64;99418.22;4938972;28;102578;-74
2024/01/10 03:09:52;;;;;;;17.52;7.57;;;;;;;-4.67;60.47;99406.97;4936753;28;104158;-74
2024/01/10 03:12:20;;;;;;;19.80;8.50;;;;;;;-4.63;60.38;99411.16;4937355;28;103901;-75
2024/01/10 03:14:48;;;;;;;18.83;9.60;;;;;;;-4.79;60.71;99413.44;4936487;28;103222;-75
2024/01/10 03:17:20;;;;;;;17.85;10.40;;;;;;;-4.83;60.31;99410.09;4933126;28;102568;-73
2024/01/10 03:19:48;;;;;;;18.35;9.27;;;;;;;-4.96;60.43;99408.84;4937325;28;103268;-75
2024/01/10 03:22:16;;;;;;;17.85;9.30;;;;;;;-4.96;60.46;99402.84;4930174;28;103838;-75
2024/01/10 03:24:44;;;;;;;17.90;10.00;;;;;;;-5.00;61.02;99405.50;4935397;28;103213;-75
2024/01/10 03:27:12;;;;;;;20.40;10.57;;;;;;;-5.04;61.06;99401.34;4938154;28;102746;-75
2024/01/10 03:29:40;;;;;;;17.30;9.95;;;;;;;-5.05;60.77;99393.66;4934976;28;104117;-74
2024/01/10 03:32:08;;;;;;;16.38;9.43;;;;;;;-4.93;60.77;99394.97;4935704;28;104261;-75
2024/01/10 03:34:38;;;;;;;19.20;10.02;;;;;;;-5.00;60.76;99384.03;4939904;28;103128;-75
2024/01/10 03:37:06;;;;;;;17.55;8.73;;;;;;;-4.97;61.86;99389.06;4940807;28;103357;-74
2024/01/10 03:39:34;;;;;;;19.30;9.32;;;;;;;-4.88;61.21;99396.50;4937615;28;102612;-75
2024/01/10 03:42:04;;;;;;;22.58;10.75;;;;;;;-4.90;61.45;99397.44;4939214;28;104264;-75
2024/01/10 03:44:32;;;;;;;16.30;9.32;;;;;;;-4.95;60.90;99392.47;4935342;28;103323;-74
2024/01/10 03:47:00;;;;;;;17.80;9.18;;;;;;;-4.80;61.16;99392.81;4955027;28;102640;-74
2024/01/10 03:49:31;;;;;;;16.58;8.57;;;;;;;-4.84;60.76;99389.50;4937339;28;103744;-74
2024/01/10 03:52:00;;;;;;;20.17;9.35;;;;;;;-4.75;59.87;99393.50;4938553;28;103406;-75
2024/01/10 03:54:28;;;;;;;19.83;9.90;;;;;;;-4.57;60.55;99395.41;4935792;28;104135;-75
2024/01/10 03:56:56;;;;;;;18.85;9.82;;;;;;;-4.50;59.95;99402.03;4938000;28;102595;-74
2024/01/10 03:59:24;;;;;;;15.05;8.93;;;;;;;-4.55;59.86;99393.59;4936874;28;104481;-75
2024/01/10 04:01:52;;;;;;;17.67;8.88;;;;;;;-4.51;59.64;99390.03;4939694;27;102518;-75
2024/01/10 04:04:20;;;;;;;16.02;9.05;;;;;;;-4.41;59.71;99384.53;4933969;28;104369;-76
2024/01/10 04:06:48;;;;;;;16.33;8.45;;;;;;;-4.58;59.36;99390.31;4939631;28;102731;-66
2024/01/10 04:09:18;;;;;;;13.10;8.32;;;;;;;-4.38;59.88;99394.75;4930662;27;102787;-74
2024/01/10 04:11:46;;;;;;;18.92;9.95;;;;;;;-4.34;59.36;99401.47;4935839;28;104125;-75
2024/01/10 04:14:15;;;;;;;16.02;8.10;;;;;;;-4.23;59.28;99404.53;4939653;28;103422;-67
2024/01/10 04:16:43;;;;;;;17.95;8.50;;;;;;;-4.23;58.81;99398.50;4936855;28;102704;-74
2024/01/10 04:19:11;;;;;;;16.08;8.27;;;;;;;-4.11;59.38;99398.03;4933712;28;103840;-74
2024/01/10 04:21:40;;;;;;;22.60;11.15;;;;;;;-4.34;58.92;99411.84;4937091;28;103930;-66
2024/01/10 04:24:08;;;;;;;20.08;9.68;;;;;;;-4.18;59.39;99407.78;4938723;28;104246;-68
2024/01/10 04:26:38;;;;;;;18.00;8.73;;;;;;;-4.25;58.53;99400.31;4933192;28;103823;-66
2024/01/10 04:29:06;;;;;;;21.55;10.88;;;;;;;-4.36;58.57;99411.06;4935487;28;104138;-66
2024/01/10 04:31:35;;;;;;;24.48;9.82;;;;;;;-4.20;59.80;99406.16;4930650;28;103050;-66
2024/01/10 04:34:03;;;;;;;18.50;9.73;;;;;;;-4.09;58.91;99403.16;4935893;28;102986;-67
2024/01/10 04:36:31;;;;;;;15.95;9.10;;;;;;;-4.13;59.26;99399.00;4937383;28;102549;-67
2024/01/10 04:38:59;;;;;;;19.27;9.93;;;;;;;-4.12;58.89;99393.75;4938397;28;104267;-66
2024/01/10 04:41:27;;;;;;;17.08;9.00;;;;;;;-4.12;59.32;99390.34;4935160;28;103284;-66
2024/01/10 04:43:57;;;;;;;16.67;9.20;;;;;;;-4.17;59.47;99390.50;4934597;28;103223;-66
2024/01/10 04:46:25;;;;;;;19.67;9.05;;;;;;;-4.10;59.08;99386.81;4933231;28;103050;-66
2024/01/10 04:48:53;;;;;;;17.48;8.30;;;;;;;-4.04;59.31;99390.88;4934374;28;102722;-66
2024/01/10 04:51:21;;;;;;;19.73;9.60;;;;;;;-4.00;59.11;99390.69;4927911;28;105059;-65
2024/01/10 04:53:49;;;;;;;15.55;8.98;;;;;;;-4.00;59.18;99384.69;4942262;28;103201;-67
2024/01/10 04:56:17;;;;;;;20.52;9.85;;;;;;;-4.20;59.84;99388.88;4933958;27;102656;-66
2024/01/10 04:58:46;;;;;;;16.67;9.63;;;;;;;-4.27;60.67;99392.63;4932642;27;103867;-66
2024/01/10 05:01:16;;;;;;;19.42;9.85;;;;;;;-4.42;60.18;99390.59;4934735;28;103303;-66
2024/01/10 05:03:44;;;;;;;16.38;9.15;;;;;;;-4.21;59.91;99391.53;4936856;28;103246;-67
2024/01/10 05:06:12;;;;;;;19.40;9.02;;;;;;;-4.33;59.68;99392.84;4934467;28;102633;-65
2024/01/10 05:08:40;;;;;;;19.52;10.23;;;;;;;-4.41;60.20;99400.03;4933287;28;104365;-66
2024/01/10 05:11:08;;;;;;;19.73;10.32;;;;;;;-4.36;59.91;99403.31;4939534;28;103334;-66
2024/01/10 05:13:36;;;;;;;18.08;10.48;;;;;;;-4.38;60.27;99405.91;4933593;28;103189;-66
2024/01/10 05:16:06;;;;;;;19.83;9.82;;;;;;;-4.19;59.56;99402.69;4933287;28;103797;-66
2024/01/10 05:18:36;;;;;;;18.88;10.32;;;;;;;-4.22;60.20;99403.63;4944122;27;102644;-66
2024/01/10 05:21:04;;;;;;;18.95;9.40;;;;;;;-4.30;59.96;99403.06;4933359;28;104006;-66
2024/01/10 05:23:32;;;;;;;16.95;9.73;;;;;;;-4.39;60.24;99408.56;4935223;28;103225;-66
2024/01/10 05:26:00;;;;;;;17.27;8.07;;;;;;;-4.27;60.50;99402.09;4936889;28;102557;-67
2024/01/10 05:28:28;;;;;;;19.95;10.40;;;;;;;-4.15;59.71;99399.06;4937121;28;104153;-66
2024/01/10 05:30:56;;;;;;;22.52;9.98;;;;;;;-4.21;60.29;99397.53;4937378;28;103447;-67
2024/01/10 05:33:24;;;;;;;18.98;9.88;;;;;;;-4.39;60.14;99395.63;4931900;28;103181;-66
2024/01/10 05:35:54;;;;;;;18.80;10.32;;;;;;;-4.32;59.95;99397.13;4933815;27;102985;-66
2024/01/10 05:38:22;;;;;;;16.95;9.75;;;;;;;-4.36;59.67;99400.72;4934418;28;102734;-66
2024/01/10 05:40:51;;;;;;;19.50;9.98;;;;;;;-4.31;60.01;99400.53;4938048;28;103258;-66
2024/01/10 05:43:20;;;;;;;23.58;10.48;;;;;;;-4.29;60.29;99401.31;4936229;28;103152;-66
2024/01/10 05:45:48;;;;;;;23.52;9.55;;;;;;;-4.37;59.96;99396.44;4933884;28;102677;-66
2024/01/10 05:48:17;;;;;;;19.92;8.90;;;;;;;-4.19;59.85;99400.91;4935582;28;104403;-67
2024/01/10 05:50:45;;;;;;;17.55;9.60;;;;;;;-4.30;60.31;99403.06;4941202;28;104294;-66
2024/01/10 05:53:17;;;;;;;18.17;8.75;;;;;;;-4.48;59.96;99403.72;4932608;28;104369;-66
2024/01/10 05:55:45;;;;;;;17.73;8.88;;;;;;;-4.23;60.10;99399.34;4938210;27;103309;-66
2024/01/10 05:58:13;;;;;;;20.52;9.40;;;;;;;-4.31;60.62;99398.78;4940127;28;104455;-76
2024/01/10 06:00:41;;;;;;;21.90;10.15;;;;;;;-4.26;60.08;99399.44;4938342;28;104122;-77
2024/01/10 06:03:09;;;;;;;21.50;10.88;;;;;;;-4.26;60.30;99401.19;4938764;27;103784;-77
2024/01/10 06:05:37;;;;;;;19.52;10.70;;;;;;;-4.21;60.30;99400.13;4939472;28;102860;-71
2024/01/10 06:08:05;;;;;;;20.35;8.85;;;;;;;-4.33;60.19;99398.00;4940980;28;103749;-77
2024/01/10 06:10:35;;;;;;;17.75;9.35;;;;;;;-4.25;59.98;99403.72;4936932;28;104332;-76
2024/01/10 06:13:05;;;;;;;17.65;9.50;;;;;;;-4.28;60.30;99401.28;4937799;28;103221;-66
2024/01/10 06:15:33;;;;;;;18.92;9.57;;;;;;;-4.54;60.67;99415.97;4939641;28;102656;-66
2024/01/10 06:18:03;;;;;;;13.43;9.20;;;;;;;-4.62;60.91;99407.66;4944043;28;102829;-76
2024/01/10 06:20:32;;;;;;;17.38;9.68;;;;;;;-4.48;60.55;99414.06;4926894;28;103162;-75
2024/01/10 06:23:00;;;;;;;17.58;9.98;;;;;;;-4.29;60.51;99414.25;4912018;27;103164;-75
2024/01/10 06:25:28;;;;;;;22.20;10.20;;;;;;;-4.35;60.75;99408.41;4931110;28;102598;-76
2024/01/10 06:27:58;;;;;;;16.35;9.15;;;;;;;-4.35;60.41;99420.47;4935252;28;102698;-75
2024/01/10 06:30:26;;;;;;;16.33;8.38;;;;;;;-4.54;60.87;99415.97;4931061;28;103191;-75
2024/01/10 06:32:55;;;;;;;17.92;9.18;;;;;;;-4.57;61.21;99413.53;4931217;28;103208;-65
2024/01/10 06:35:23;;;;;;;20.98;10.70;;;;;;;-4.63;61.43;99424.06;4931496;28;102710;-76
2024/01/10 06:37:51;;;;;;;23.83;10.88;;;;;;;-4.58;61.67;99424.75;4933253;28;103513;-65
2024/01/10 06:40:21;;;;;;;16.38;9.32;;;;;;;-4.86;62.50;99425.72;4931185;27;104350;-73
2024/01/10 06:42:49;;;;;;;18.05;9.35;;;;;;;-5.18;64.07;99414.72;4931572;28;103203;-75
2024/01/10 06:45:19;;;;;;;18.08;9.65;;;;;;;-5.13;63.47;99418.91;4929940;27;102897;-75
2024/01/10 06:47:48;;;;;;;20.75;9.85;;;;;;;-5.05;62.98;99435.00;4942955;28;102700;-74
2024/01/10 06:50:16;;;;;;;17.02;9.32;;;;;;;-5.03;63.01;99420.28;4920959;28;103235;-66
2024/01/10 06:52:44;;;;;;;15.45;8.95;;;;;;;-5.07;63.27;99424.72;4941185;28;104111;-76
2024/01/10 06:55:12;;;;;;;22.63;10.00;;;;;;;-5.17;63.91;99426.75;4925110;28;102956;-74
2024/01/10 06:57:40;;;;;;;17.33;9.55;;;;;;;-5.00;63.21;99433.09;4928497;28;102705;-75
2024/01/10 07:00:10;;;;;;;20.90;10.27;;;;;;;-4.92;63.32;99431.09;4926213;28;102881;-75
2024/01/10 07:02:41;;;;;;;20.52;10.80;;;;;;;-4.94;63.53;99427.72;4937620;27;103094;-76
2024/01/10 07:05:09;;;;;;;16.83;10.30;;;;;;;-4.84;63.12;99433.41;4925830;28;103071;-75
2024/01/10 07:07:37;;;;;;;21.15;10.70;;;;;;;-4.87;63.20;99438.72;4927099;28;102654;-75
2024/01/10 07:10:06;;;;;;;20.65;10.70;;;;;;;-5.01;64.06;99431.41;4905309;27;104361;-75
2024/01/10 07:12:35;;;;;;;19.30;10.15;;;;;;;-5.08;64.07;99429.91;4931536;28;103243;-75
2024/01/10 07:15:04;;;;;;;25.40;10.63;;;;;;;-5.01;64.01;99426.25;4929512;28;102742;-75
2024/01/10 07:17:33;;;;;;;24.45;10.73;;;;;;;-5.16;64.82;99423.28;4928618;28;102754;-75
2024/01/10 07:20:03;;;;;;;20.65;10.45;;;;;;;-5.03;64.46;99433.19;4925432;28;104401;-75
2024/01/10 07:22:32;;;;;;;20.35;10.48;;;;;;;-5.04;64.42;99429.78;4929221;28;103324;-75
2024/01/10 07:25:00;;;;;;;22.05;10.27;;;;;;;-4.84;64.11;99433.41;4926577;28;102666;-75
2024/01/10 07:27:28;;;;;;;18.15;8.75;;;;;;;-4.71;63.39;99442.44;4930140;28;102620;-75
2024/01/10 07:29:57;;;;;;;17.85;8.80;;;;;;;-4.65;63.28;99443.97;4926523;28;102987;-75
2024/01/10 07:32:25;;;;;;;18.27;9.00;;;;;;;-4.62;63.15;99443.88;4928719;28;103355;-75
2024/01/10 07:34:53;;;;;;;20.65;10.93;;;;;;;-4.58;63.36;99445.44;4915958;28;102716;-75
2024/01/10 07:37:23;;;;;;;18.48;10.35;;;;;;;-4.67;63.29;99446.59;4928545;28;104092;-76
2024/01/10 07:39:51;;;;;;;21.05;10.60;;;;;;;-4.86;63.88;99455.88;4927675;28;103274;-75
2024/01/10 07:42:19;;;;;;;18.65;10.23;;;;;;;-4.88;64.29;99455.94;4927453;28;103202;-77
2024/01/10 07:44:49;;;;;;;16.42;9.75;;;;;;;-4.82;63.80;99449.72;4932905;28;102662;-76
2024/01/10 07:47:20;;;;;;;18.20;10.02;;;;;;;-4.79;63.59;99456.50;4922773;28;104379;-78
2024/01/10 07:49:51;;;;;;;15.93;9.15;;;;;;;-4.85;63.86;99463.59;4929982;28;103073;-67
2024/01/10 07:52:19;;;;;;;21.27;10.60;;;;;;;-4.83;63.77;99461.78;4927428;28;104271;-66
2024/01/10 07:55:15;;;;;;;20.38;11.23;;;;;;;-4.78;64.02;99468.53;4932874;28;103139;-67
2024/01/10 07:58:02;;;;;;;20.33;10.00;;;;;;;-4.63;63.76;99457.69;4899412;27;102904;-67
2024/01/10 08:00:30;;;;;;;16.92;9.95;;;;;;;-4.72;64.03;99468.34;4923996;28;103916;-67
2024/01/10 08:02:59;;;;;;;18.77;10.25;;;;;;;-4.86;64.13;99471.38;4920947;27;104015;-67
2024/01/10 08:05:27;;;;;;;19.65;10.52;;;;;;;-4.89;64.79;99469.75;4928345;28;102569;-67
2024/01/10 08:07:58;;;;;;;20.70;10.35;;;;;;;-4.83;64.67;99477.28;4930003;28;103968;-66
2024/01/10 08:10:28;;;;;;;20.77;11.30;;;;;;;-4.78;64.47;99481.47;4922500;28;103362;-67
2024/01/10 08:12:57;;;;;;;20.58;10.95;;;;;;;-4.69;64.66;99484.59;4926348;28;103301;-67
2024/01/10 08:15:25;;;;;;;18.20;10.45;;;;;;;-4.65;64.24;99487.94;4926364;28;102903;-67
2024/01/10 08:17:53;;;;;;;21.90;10.82;;;;;;;-4.50;64.07;99479.59;4930623;28;102703;-67
2024/01/10 08:20:22;;;;;;;22.00;11.05;;;;;;;-4.30;63.78;99485.00;4914490;27;103208;-67
2024/01/10 08:22:50;;;;;;;21.70;11.45;;;;;;;-4.16;62.51;99483.59;4939257;28;103016;-66
2024/01/10 08:25:19;;;;;;;26.13;11.77;;;;;;;-4.17;63.23;99481.91;4925825;28;102827;-67
2024/01/10 08:27:48;;;;;;;18.17;10.23;;;;;;;-4.06;63.13;99480.66;4926069;28;104214;-67
2024/01/10 08:30:17;;;;;;;23.73;11.65;;;;;;;-3.89;62.71;99486.06;4923053;28;104871;-67
2024/01/10 08:32:45;;;;;;;24.58;12.13;;;;;;;-3.81;62.37;99493.56;4925334;28;103266;-67
2024/01/10 08:35:13;;;;;;;17.48;9.77;;;;;;;-3.68;61.92;99493.94;4924348;28;102824;-67
2024/01/10 08:37:44;;;;;;;21.35;10.65;;;;;;;-3.54;61.68;99493.38;4924033;28;103836;-66
2024/01/10 08:40:15;;;;;;;20.92;10.27;;;;;;;-3.31;61.17;99495.09;4926625;28;104352;-75
2024/01/10 08:42:43;;;;;;;19.55;10.45;;;;;;;-3.05;60.54;99493.19;4928965;28;103550;-67
2024/01/10 08:45:14;;;;;;;19.80;11.05;;;;;;;-2.81;59.68;99496.53;4917987;27;102788;-67
2024/01/10 08:47:43;;;;;;;23.08;11.88;;;;;;;-2.60;58.94;99494.78;4926871;27;104631;-67
2024/01/10 08:50:11;;;;;;;24.00;10.25;;;;;;;-2.27;59.58;99493.38;4923094;28;103748;-66
2024/01/10 08:52:40;;;;;;;21.33;10.07;;;;;;;-1.98;57.89;99492.09;4927988;28;103285;-67
2024/01/10 08:55:09;;;;;;;17.65;12.25;;;;;;;-1.60;57.41;99494.69;4927702;28;102719;-67
2024/01/10 08:57:41;;;;;;;23.08;11.35;;;;;;;-1.46;57.39;99493.22;4926014;28;102819;-67
2024/01/10 09:00:11;;;;;;;23.00;12.43;;;;;;;-1.50;56.56;99495.94;4927924;28;104137;-67
2024/01/10 09:02:42;;;;;;;23.08;13.00;;;;;;;-1.40;56.39;99496.34;4925409;27;103342;-68
2024/01/10 09:05:10;;;;;;;20.38;14.05;;;;;;;-1.14;55.93;99498.63;4923604;28;102635;-68
2024/01/10 09:07:39;;;;;;;20.67;12.88;;;;;;;-1.07;55.65;99494.81;4927489;28;104173;-67
2024/01/10 09:10:08;;;;;;;22.58;15.27;;;;;;;-0.99;54.36;99497.06;4925012;27;104130;-68
2024/01/10 09:12:37;;;;;;;20.25;12.70;;;;;;;-0.99;54.68;99497.06;4925414;28;103288;-68
2024/01/10 09:15:08;;;;;;;20.52;12.73;;;;;;;-0.81;54.61;99505.69;4930773;28;102644;-69
2024/01/10 09:17:36;;;;;;;23.98;14.60;;;;;;;-0.62;53.95;99514.25;4923984;28;102996;-69
2024/01/10 09:20:08;;;;;;;19.38;13.93;;;;;;;-0.63;53.74;99509.97;4937204;27;104293;-69
2024/01/10 09:22:37;;;;;;;25.55;15.70;;;;;;;-0.73;52.81;99508.78;4926456;28;103352;-69
2024/01/10 09:25:06;;;;;;;21.23;13.98;;;;;;;-0.79;53.78;99512.50;4926153;28;102672;-68
2024/01/10 09:27:36;;;;;;;25.38;15.40;;;;;;;-0.76;54.07;99506.28;4927814;28;103839;-69
2024/01/10 09:30:08;;;;;;;19.30;13.50;;;;;;;-0.77;53.61;99505.47;4926922;28;104135;-69
2024/01/10 09:32:37;;;;;;;22.73;14.43;;;;;;;-0.60;53.45;99507.22;4925241;27;104003;-69
2024/01/10 09:35:09;;;;;;;21.85;15.02;;;;;;;-0.32;53.52;99515.41;4940766;28;102861;-69
2024/01/10 09:37:37;;;;;;;17.92;12.57;;;;;;;-0.18;52.71;99516.34;4915869;28;104313;-68
2024/01/10 09:40:07;;;;;;;24.98;13.95;;;;;;;-0.18;52.84;99508.53;4938246;28;103182;-69
2024/01/10 09:42:37;;;;;;;25.80;16.75;;;;;;;-0.29;52.34;99523.88;4929591;28;103239;-69
2024/01/10 09:45:08;;;;;;;21.02;15.30;;;;;;;-0.39;51.05;99523.50;4928728;28;102688;-69
2024/01/10 09:47:38;;;;;;;25.77;17.38;;;;;;;-0.24;52.33;99519.28;4933291;28;103851;-69
2024/01/10 09:50:10;;;;;;;24.10;14.85;;;;;;;-0.07;52.20;99522.78;4931325;28;103296;-68
2024/01/10 09:52:43;;;;;;;21.85;13.38;;;;;;;-0.04;51.65;99522.59;4923120;27;103197;-69
2024/01/10 09:55:14;;;;;;;21.65;13.27;;;;;;;0.00;51.64;99526.75;4929283;28;103055;-68
2024/01/10 09:57:42;;;;;;;24.23;16.23;;;;;;;0.08;51.01;99514.16;4927636;28;102821;-68
2024/01/10 10:00:11;;;;;;;20.55;12.43;;;;;;;0.05;52.26;99519.50;4928434;28;103175;-62
2024/01/10 10:02:40;;;;;;;27.88;17.00;;;;;;;0.10;51.47;99509.69;4923510;27;103446;-66
2024/01/10 10:05:15;;;;;;;24.50;16.42;;;;;;;0.08;49.71;99510.69;4929692;28;102801;-66
2024/01/10 10:07:47;;;;;;;29.35;18.35;;;;;;;-0.56;51.71;99511.34;4930368;27;104843;-66
2024/01/10 10:10:17;;;;;;;24.37;13.70;;;;;;;-0.39;52.21;99510.50;4927947;28;104354;-66
2024/01/10 10:12:47;;;;;;;30.23;18.85;;;;;;;-0.90;52.24;99507.00;4915917;27;104156;-66
2024/01/10 10:15:18;;;;;;;26.20;15.95;;;;;;;-0.43;52.55;99510.72;4933020;28;102667;-74
2024/01/10 10:17:48;;;;;;;25.58;15.93;;;;;;;-0.43;52.07;99505.50;4937509;28;103991;-73
2024/01/10 10:20:22;;;;;;;28.25;18.08;;;;;;;-0.15;51.67;99504.13;4929406;28;104416;-72
2024/01/10 10:23:10;;;;;;;26.35;17.17;;;;;;;-0.05;51.13;99505.31;4929672;28;102663;-74
2024/01/10 10:25:44;;;;;;;22.92;16.02;;;;;;;0.17;51.27;99494.56;4927642;28;102682;-66
2024/01/10 10:28:12;;;;;;;26.45;18.45;;;;;;;0.13;50.74;99488.69;4931897;28;102861;-66
2024/01/10 10:30:57;;;;;;;24.38;16.40;;;;;;;-0.10;52.36;99496.91;4929695;28;104166;-67
2024/01/10 10:33:25;;;;;;;25.55;16.80;;;;;;;0.34;52.15;99491.06;4920710;27;103176;-67
2024/01/10 10:35:55;;;;;;;28.33;18.80;;;;;;;-0.21;50.70;99495.69;4939282;28;102677;-66
2024/01/10 10:38:23;;;;;;;25.42;17.05;;;;;;;0.06;51.76;99496.94;4935476;27;104269;-66
2024/01/10 10:40:52;;;;;;;26.45;16.20;;;;;;;-0.07;51.49;99492.34;4930714;28;103713;-73
2024/01/10 10:43:22;;;;;;;29.15;18.02;;;;;;;0.48;51.04;99488.53;4926257;28;103230;-73
2024/01/10 10:45:51;;;;;;;27.13;19.08;;;;;;;0.60;51.08;99486.19;4929287;28;102754;-73
2024/01/10 10:48:20;;;;;;;25.00;16.67;;;;;;;0.72;50.72;99489.88;4930258;28;103003;-73
2024/01/10 10:51:00;;;;;;;26.73;18.27;;;;;;;0.68;50.09;99494.41;4930454;28;104314;-73
2024/01/10 10:53:30;;;;;;;28.02;17.75;;;;;;;0.92;50.48;99486.97;4929714;28;103214;-73
2024/01/10 10:56:00;;;;;;;27.02;18.13;;;;;;;0.90;50.32;99494.03;4917238;27;102792;-73
2024/01/10 10:58:29;;;;;;;24.67;16.83;;;;;;;1.16;50.81;99489.09;4932274;28;104199;-72
2024/01/10 11:00:59;;;;;;;28.60;18.17;;;;;;;1.13;49.94;99489.28;4928133;28;104096;-73
2024/01/10 11:03:29;;;;;;;25.30;16.85;;;;;;;1.34;49.81;99487.22;4923020;27;103225;-72
2024/01/10 11:06:02;;;;;;;26.90;17.05;;;;;;;1.53;49.46;99493.94;4933329;28;102790;-71
2024/01/10 11:08:34;;;;;;;28.05;17.90;;;;;;;1.61;49.32;99495.19;4932994;28;103331;-71
2024/01/10 11:11:07;;;;;;;27.05;18.52;;;;;;;1.80;48.54;99487.06;4928009;28;103875;-65
2024/01/10 11:13:52;;;;;;;27.45;18.77;;;;;;;1.40;48.58;99492.06;4931083;28;103441;-66
2024/01/10 11:16:42;;;;;;;23.65;16.10;;;;;;;1.64;48.42;99483.72;4940784;27;104057;-65
2024/01/10 11:19:43;;;;;;;24.35;15.00;;;;;;;1.87;49.16;99486.69;4923750;27;102712;-65
2024/01/10 11:22:23;;;;;;;27.98;18.65;;;;;;;1.88;49.15;99483.16;4924776;28;104123;-66
2024/01/10 11:24:51;;;;;;;29.25;19.00;;;;;;;2.12;47.34;99484.28;4923872;28;103215;-66